sensor_id;sensor_type;location;lat;lon;timestamp;P1;durP1;ratioP1;P2;durP2;ratioP2
6821;SDS011;3449;48.728;8.968;2023-12-04T00:02:12;29.83;;;14.00;;
6821;SDS011;3449;48.728;8.968;2023-12-04T00:04:38;34.07;;;16.23;;
6821;SDS011;3449;48.728;8.968;2023-12-04T00:07:05;32.50;;;14.80;;
6821;SDS011;3449;48.728;8.968;2023-12-04T00:09:32;32.10;;;14.23;;
6821;SDS011;3449;48.728;8.968;2023-12-04T00:11:59;29.60;;;15.00;;
6821;SDS011;3449;48.728;8.968;2023-12-04T00:14:25;28.13;;;13.77;;
6821;SDS011;3449;48.728;8.968;2023-12-04T00:16:54;33.40;;;14.90;;
6821;SDS011;3449;48.728;8.968;2023-12-04T00:19:20;30.13;;;14.07;;
6821;SDS011;3449;48.728;8.968;2023-12-04T00:21:48;26.97;;;13.43;;
6821;SDS011;3449;48.728;8.968;2023-12-04T00:24:15;32.03;;;14.60;;
6821;SDS011;3449;48.728;8.968;2023-12-04T00:26:41;28.23;;;14.37;;
6821;SDS011;3449;48.728;8.968;2023-12-04T00:29:08;29.30;;;14.20;;
6821;SDS011;3449;48.728;8.968;2023-12-04T00:31:38;31.60;;;14.03;;
6821;SDS011;3449;48.728;8.968;2023-12-04T00:34:06;31.90;;;13.70;;
6821;SDS011;3449;48.728;8.968;2023-12-04T00:36:33;35.80;;;15.37;;
6821;SDS011;3449;48.728;8.968;2023-12-04T00:39:00;25.70;;;12.37;;
6821;SDS011;3449;48.728;8.968;2023-12-04T00:41:26;27.33;;;13.10;;
6821;SDS011;3449;48.728;8.968;2023-12-04T00:43:53;32.00;;;13.00;;
6821;SDS011;3449;48.728;8.968;2023-12-04T00:46:20;26.63;;;12.90;;
6821;SDS011;3449;48.728;8.968;2023-12-04T00:48:47;24.63;;;11.37;;
6821;SDS011;3449;48.728;8.968;2023-12-04T00:51:15;24.83;;;13.60;;
6821;SDS011;3449;48.728;8.968;2023-12-04T00:53:42;28.33;;;12.17;;
6821;SDS011;3449;48.728;8.968;2023-12-04T00:56:09;24.10;;;13.13;;
6821;SDS011;3449;48.728;8.968;2023-12-04T00:58:36;28.00;;;13.20;;
6821;SDS011;3449;48.728;8.968;2023-12-04T01:01:03;27.53;;;13.37;;
6821;SDS011;3449;48.728;8.968;2023-12-04T01:03:31;26.40;;;12.50;;
6821;SDS011;3449;48.728;8.968;2023-12-04T01:05:58;24.80;;;10.90;;
6821;SDS011;3449;48.728;8.968;2023-12-04T01:08:26;26.50;;;12.10;;
6821;SDS011;3449;48.728;8.968;2023-12-04T01:10:53;27.50;;;13.07;;
6821;SDS011;3449;48.728;8.968;2023-12-04T01:13:20;26.37;;;11.87;;
6821;SDS011;3449;48.728;8.968;2023-12-04T01:15:47;24.83;;;12.67;;
6821;SDS011;3449;48.728;8.968;2023-12-04T01:18:14;25.43;;;11.47;;
6821;SDS011;3449;48.728;8.968;2023-12-04T01:20:41;27.23;;;12.83;;
6821;SDS011;3449;48.728;8.968;2023-12-04T01:23:07;25.63;;;12.00;;
6821;SDS011;3449;48.728;8.968;2023-12-04T01:25:36;26.90;;;11.57;;
6821;SDS011;3449;48.728;8.968;2023-12-04T01:28:02;27.20;;;12.70;;
6821;SDS011;3449;48.728;8.968;2023-12-04T01:30:29;21.80;;;10.00;;
6821;SDS011;3449;48.728;8.968;2023-12-04T01:32:56;26.40;;;11.10;;
6821;SDS011;3449;48.728;8.968;2023-12-04T01:35:23;24.30;;;12.13;;
6821;SDS011;3449;48.728;8.968;2023-12-04T01:37:50;28.33;;;11.90;;
6821;SDS011;3449;48.728;8.968;2023-12-04T01:40:17;27.40;;;11.97;;
6821;SDS011;3449;48.728;8.968;2023-12-04T01:42:46;25.87;;;12.37;;
6821;SDS011;3449;48.728;8.968;2023-12-04T01:45:12;27.10;;;11.97;;
6821;SDS011;3449;48.728;8.968;2023-12-04T01:47:39;24.10;;;11.70;;
6821;SDS011;3449;48.728;8.968;2023-12-04T01:50:07;25.37;;;11.93;;
6821;SDS011;3449;48.728;8.968;2023-12-04T01:52:35;25.30;;;11.93;;
6821;SDS011;3449;48.728;8.968;2023-12-04T01:55:03;25.60;;;12.37;;
6821;SDS011;3449;48.728;8.968;2023-12-04T01:57:31;28.33;;;12.67;;
6821;SDS011;3449;48.728;8.968;2023-12-04T01:59:59;26.90;;;11.17;;
6821;SDS011;3449;48.728;8.968;2023-12-04T02:02:26;23.03;;;11.50;;
6821;SDS011;3449;48.728;8.968;2023-12-04T02:04:54;26.90;;;12.73;;
6821;SDS011;3449;48.728;8.968;2023-12-04T02:07:23;25.83;;;11.30;;
6821;SDS011;3449;48.728;8.968;2023-12-04T02:09:50;29.27;;;14.07;;
6821;SDS011;3449;48.728;8.968;2023-12-04T02:12:17;30.23;;;12.40;;
6821;SDS011;3449;48.728;8.968;2023-12-04T02:14:44;23.83;;;12.57;;
6821;SDS011;3449;48.728;8.968;2023-12-04T02:17:12;24.53;;;11.43;;
6821;SDS011;3449;48.728;8.968;2023-12-04T02:19:40;22.60;;;12.03;;
6821;SDS011;3449;48.728;8.968;2023-12-04T02:22:07;25.03;;;12.07;;
6821;SDS011;3449;48.728;8.968;2023-12-04T02:24:35;21.97;;;11.67;;
6821;SDS011;3449;48.728;8.968;2023-12-04T02:27:04;24.43;;;12.03;;
6821;SDS011;3449;48.728;8.968;2023-12-04T02:29:38;29.53;;;14.67;;
6821;SDS011;3449;48.728;8.968;2023-12-04T02:32:08;39.77;;;13.60;;
6821;SDS011;3449;48.728;8.968;2023-12-04T02:34:41;24.37;;;12.87;;
6821;SDS011;3449;48.728;8.968;2023-12-04T02:37:10;27.60;;;13.80;;
6821;SDS011;3449;48.728;8.968;2023-12-04T02:39:40;30.93;;;13.63;;
6821;SDS011;3449;48.728;8.968;2023-12-04T02:42:08;24.60;;;12.70;;
6821;SDS011;3449;48.728;8.968;2023-12-04T02:44:34;30.80;;;12.77;;
6821;SDS011;3449;48.728;8.968;2023-12-04T02:47:01;26.37;;;11.50;;
6821;SDS011;3449;48.728;8.968;2023-12-04T02:49:28;25.43;;;12.50;;
6821;SDS011;3449;48.728;8.968;2023-12-04T02:51:55;27.70;;;12.60;;
6821;SDS011;3449;48.728;8.968;2023-12-04T02:54:22;28.27;;;12.60;;
6821;SDS011;3449;48.728;8.968;2023-12-04T02:56:50;27.77;;;12.03;;
6821;SDS011;3449;48.728;8.968;2023-12-04T02:59:17;28.23;;;12.07;;
6821;SDS011;3449;48.728;8.968;2023-12-04T03:01:44;21.07;;;11.07;;
6821;SDS011;3449;48.728;8.968;2023-12-04T03:04:11;22.47;;;10.63;;
6821;SDS011;3449;48.728;8.968;2023-12-04T03:06:39;27.30;;;12.13;;
6821;SDS011;3449;48.728;8.968;2023-12-04T03:09:06;24.50;;;11.50;;
6821;SDS011;3449;48.728;8.968;2023-12-04T03:11:32;19.57;;;9.83;;
6821;SDS011;3449;48.728;8.968;2023-12-04T03:14:01;26.47;;;11.87;;
6821;SDS011;3449;48.728;8.968;2023-12-04T03:16:27;24.10;;;11.57;;
6821;SDS011;3449;48.728;8.968;2023-12-04T03:18:54;25.80;;;11.00;;
6821;SDS011;3449;48.728;8.968;2023-12-04T03:21:21;23.23;;;10.20;;
6821;SDS011;3449;48.728;8.968;2023-12-04T03:23:48;26.40;;;10.63;;
6821;SDS011;3449;48.728;8.968;2023-12-04T03:26:15;23.50;;;11.83;;
6821;SDS011;3449;48.728;8.968;2023-12-04T03:28:41;26.00;;;11.17;;
6821;SDS011;3449;48.728;8.968;2023-12-04T03:31:10;25.23;;;11.83;;
6821;SDS011;3449;48.728;8.968;2023-12-04T03:33:36;24.60;;;10.80;;
6821;SDS011;3449;48.728;8.968;2023-12-04T03:36:04;25.30;;;11.40;;
6821;SDS011;3449;48.728;8.968;2023-12-04T03:38:31;22.47;;;10.70;;
6821;SDS011;3449;48.728;8.968;2023-12-04T03:40:58;21.03;;;9.43;;
6821;SDS011;3449;48.728;8.968;2023-12-04T03:43:25;27.93;;;10.50;;
6821;SDS011;3449;48.728;8.968;2023-12-04T03:45:51;24.33;;;11.03;;
6821;SDS011;3449;48.728;8.968;2023-12-04T03:48:20;23.07;;;10.37;;
6821;SDS011;3449;48.728;8.968;2023-12-04T03:50:46;23.30;;;12.10;;
6821;SDS011;3449;48.728;8.968;2023-12-04T03:53:13;21.43;;;10.70;;
6821;SDS011;3449;48.728;8.968;2023-12-04T03:55:40;26.83;;;12.83;;
6821;SDS011;3449;48.728;8.968;2023-12-04T03:58:07;21.43;;;12.17;;
6821;SDS011;3449;48.728;8.968;2023-12-04T04:00:34;20.47;;;10.87;;
6821;SDS011;3449;48.728;8.968;2023-12-04T04:03:05;29.03;;;14.03;;
6821;SDS011;3449;48.728;8.968;2023-12-04T04:05:34;30.13;;;17.73;;
6821;SDS011;3449;48.728;8.968;2023-12-04T04:08:01;22.97;;;13.20;;
6821;SDS011;3449;48.728;8.968;2023-12-04T04:10:28;31.07;;;14.60;;
6821;SDS011;3449;48.728;8.968;2023-12-04T04:12:54;25.17;;;13.30;;
6821;SDS011;3449;48.728;8.968;2023-12-04T04:15:21;27.97;;;13.13;;
6821;SDS011;3449;48.728;8.968;2023-12-04T04:17:48;17.93;;;10.50;;
6821;SDS011;3449;48.728;8.968;2023-12-04T04:20:15;19.80;;;10.80;;
6821;SDS011;3449;48.728;8.968;2023-12-04T04:22:43;27.03;;;12.23;;
6821;SDS011;3449;48.728;8.968;2023-12-04T04:25:11;22.33;;;11.20;;
6821;SDS011;3449;48.728;8.968;2023-12-04T04:27:38;25.07;;;11.60;;
6821;SDS011;3449;48.728;8.968;2023-12-04T04:30:05;26.33;;;10.57;;
6821;SDS011;3449;48.728;8.968;2023-12-04T04:32:33;20.90;;;10.10;;
6821;SDS011;3449;48.728;8.968;2023-12-04T04:35:00;23.93;;;11.30;;
6821;SDS011;3449;48.728;8.968;2023-12-04T04:37:28;25.73;;;11.00;;
6821;SDS011;3449;48.728;8.968;2023-12-04T04:39:56;24.77;;;11.73;;
6821;SDS011;3449;48.728;8.968;2023-12-04T04:42:23;28.57;;;11.87;;
6821;SDS011;3449;48.728;8.968;2023-12-04T04:44:49;23.93;;;11.30;;
6821;SDS011;3449;48.728;8.968;2023-12-04T04:47:16;20.40;;;10.90;;
6821;SDS011;3449;48.728;8.968;2023-12-04T04:49:43;19.60;;;10.17;;
6821;SDS011;3449;48.728;8.968;2023-12-04T04:52:10;23.50;;;10.90;;
6821;SDS011;3449;48.728;8.968;2023-12-04T04:54:37;24.23;;;12.07;;
6821;SDS011;3449;48.728;8.968;2023-12-04T04:57:05;19.93;;;10.53;;
6821;SDS011;3449;48.728;8.968;2023-12-04T04:59:33;18.97;;;9.67;;
6821;SDS011;3449;48.728;8.968;2023-12-04T05:02:00;21.33;;;10.73;;
6821;SDS011;3449;48.728;8.968;2023-12-04T05:04:26;25.57;;;12.50;;
6821;SDS011;3449;48.728;8.968;2023-12-04T05:06:53;22.70;;;11.30;;
6821;SDS011;3449;48.728;8.968;2023-12-04T05:09:20;23.17;;;11.60;;
6821;SDS011;3449;48.728;8.968;2023-12-04T05:11:47;23.07;;;10.83;;
6821;SDS011;3449;48.728;8.968;2023-12-04T05:14:15;22.50;;;12.00;;
6821;SDS011;3449;48.728;8.968;2023-12-04T05:16:42;19.63;;;10.57;;
6821;SDS011;3449;48.728;8.968;2023-12-04T05:19:09;22.60;;;11.30;;
6821;SDS011;3449;48.728;8.968;2023-12-04T05:21:35;23.33;;;11.40;;
6821;SDS011;3449;48.728;8.968;2023-12-04T05:24:02;21.90;;;10.67;;
6821;SDS011;3449;48.728;8.968;2023-12-04T05:26:29;17.37;;;9.93;;
6821;SDS011;3449;48.728;8.968;2023-12-04T05:28:56;21.80;;;11.13;;
6821;SDS011;3449;48.728;8.968;2023-12-04T05:31:25;19.93;;;9.63;;
6821;SDS011;3449;48.728;8.968;2023-12-04T05:33:52;21.87;;;9.90;;
6821;SDS011;3449;48.728;8.968;2023-12-04T05:36:19;23.70;;;10.43;;
6821;SDS011;3449;48.728;8.968;2023-12-04T05:38:46;24.50;;;10.40;;
6821;SDS011;3449;48.728;8.968;2023-12-04T05:41:12;18.67;;;9.97;;
6821;SDS011;3449;48.728;8.968;2023-12-04T05:43:39;21.53;;;10.10;;
6821;SDS011;3449;48.728;8.968;2023-12-04T05:46:06;21.33;;;10.37;;
6821;SDS011;3449;48.728;8.968;2023-12-04T05:48:34;20.87;;;9.47;;
6821;SDS011;3449;48.728;8.968;2023-12-04T05:51:01;18.47;;;10.03;;
6821;SDS011;3449;48.728;8.968;2023-12-04T05:53:28;22.57;;;9.53;;
6821;SDS011;3449;48.728;8.968;2023-12-04T05:55:55;22.70;;;10.80;;
6821;SDS011;3449;48.728;8.968;2023-12-04T05:58:22;20.57;;;9.80;;
6821;SDS011;3449;48.728;8.968;2023-12-04T06:00:49;18.13;;;10.00;;
6821;SDS011;3449;48.728;8.968;2023-12-04T06:03:15;24.33;;;10.50;;
6821;SDS011;3449;48.728;8.968;2023-12-04T06:05:44;21.00;;;10.47;;
6821;SDS011;3449;48.728;8.968;2023-12-04T06:08:10;18.67;;;9.90;;
6821;SDS011;3449;48.728;8.968;2023-12-04T06:10:37;18.57;;;9.73;;
6821;SDS011;3449;48.728;8.968;2023-12-04T06:13:04;25.13;;;9.50;;
6821;SDS011;3449;48.728;8.968;2023-12-04T06:15:31;21.20;;;9.90;;
6821;SDS011;3449;48.728;8.968;2023-12-04T06:17:58;21.77;;;10.87;;
6821;SDS011;3449;48.728;8.968;2023-12-04T06:20:24;20.13;;;9.27;;
6821;SDS011;3449;48.728;8.968;2023-12-04T06:22:53;20.13;;;10.60;;
6821;SDS011;3449;48.728;8.968;2023-12-04T06:25:20;19.90;;;10.30;;
6821;SDS011;3449;48.728;8.968;2023-12-04T06:27:48;46.33;;;24.83;;
6821;SDS011;3449;48.728;8.968;2023-12-04T06:30:16;51.37;;;27.63;;
6821;SDS011;3449;48.728;8.968;2023-12-04T06:32:44;29.73;;;13.83;;
6821;SDS011;3449;48.728;8.968;2023-12-04T06:35:12;23.40;;;11.93;;
6821;SDS011;3449;48.728;8.968;2023-12-04T06:37:40;17.30;;;9.47;;
6821;SDS011;3449;48.728;8.968;2023-12-04T06:40:09;21.73;;;11.40;;
6821;SDS011;3449;48.728;8.968;2023-12-04T06:42:36;24.03;;;11.63;;
6821;SDS011;3449;48.728;8.968;2023-12-04T06:45:04;24.00;;;12.30;;
6821;SDS011;3449;48.728;8.968;2023-12-04T06:47:32;19.30;;;9.30;;
6821;SDS011;3449;48.728;8.968;2023-12-04T06:50:01;43.73;;;17.10;;
6821;SDS011;3449;48.728;8.968;2023-12-04T06:52:28;33.07;;;15.17;;
6821;SDS011;3449;48.728;8.968;2023-12-04T06:54:54;25.70;;;11.40;;
6821;SDS011;3449;48.728;8.968;2023-12-04T06:57:23;22.33;;;10.97;;
6821;SDS011;3449;48.728;8.968;2023-12-04T06:59:49;23.33;;;10.60;;
6821;SDS011;3449;48.728;8.968;2023-12-04T07:02:16;22.40;;;10.87;;
6821;SDS011;3449;48.728;8.968;2023-12-04T07:04:43;20.80;;;10.33;;
6821;SDS011;3449;48.728;8.968;2023-12-04T07:07:10;27.60;;;11.00;;
6821;SDS011;3449;48.728;8.968;2023-12-04T07:09:37;19.37;;;10.40;;
6821;SDS011;3449;48.728;8.968;2023-12-04T07:12:04;22.60;;;10.60;;
6821;SDS011;3449;48.728;8.968;2023-12-04T07:14:33;18.77;;;10.10;;
6821;SDS011;3449;48.728;8.968;2023-12-04T07:16:59;20.63;;;9.43;;
6821;SDS011;3449;48.728;8.968;2023-12-04T07:19:31;24.97;;;11.27;;
6821;SDS011;3449;48.728;8.968;2023-12-04T07:21:58;22.00;;;10.30;;
6821;SDS011;3449;48.728;8.968;2023-12-04T07:24:25;21.60;;;10.70;;
6821;SDS011;3449;48.728;8.968;2023-12-04T07:26:52;21.33;;;10.43;;
6821;SDS011;3449;48.728;8.968;2023-12-04T07:29:19;26.67;;;11.87;;
6821;SDS011;3449;48.728;8.968;2023-12-04T07:31:47;24.83;;;11.67;;
6821;SDS011;3449;48.728;8.968;2023-12-04T07:34:14;23.20;;;11.77;;
6821;SDS011;3449;48.728;8.968;2023-12-04T07:36:41;19.80;;;10.00;;
6821;SDS011;3449;48.728;8.968;2023-12-04T07:39:09;16.37;;;9.40;;
6821;SDS011;3449;48.728;8.968;2023-12-04T07:41:36;20.20;;;9.83;;
6821;SDS011;3449;48.728;8.968;2023-12-04T07:44:03;20.33;;;10.30;;
6821;SDS011;3449;48.728;8.968;2023-12-04T07:46:30;20.83;;;9.57;;
6821;SDS011;3449;48.728;8.968;2023-12-04T07:48:58;25.07;;;11.00;;
6821;SDS011;3449;48.728;8.968;2023-12-04T07:51:25;19.90;;;9.73;;
6821;SDS011;3449;48.728;8.968;2023-12-04T07:53:52;19.30;;;9.90;;
6821;SDS011;3449;48.728;8.968;2023-12-04T07:56:20;20.00;;;9.50;;
6821;SDS011;3449;48.728;8.968;2023-12-04T07:58:47;18.53;;;10.47;;
6821;SDS011;3449;48.728;8.968;2023-12-04T08:01:14;23.60;;;11.37;;
6821;SDS011;3449;48.728;8.968;2023-12-04T08:03:41;36.23;;;15.53;;
6821;SDS011;3449;48.728;8.968;2023-12-04T08:06:10;55.07;;;21.47;;
6821;SDS011;3449;48.728;8.968;2023-12-04T08:08:37;50.57;;;19.63;;
6821;SDS011;3449;48.728;8.968;2023-12-04T08:11:04;24.77;;;12.40;;
6821;SDS011;3449;48.728;8.968;2023-12-04T08:13:31;22.07;;;12.00;;
6821;SDS011;3449;48.728;8.968;2023-12-04T08:15:57;22.37;;;12.43;;
6821;SDS011;3449;48.728;8.968;2023-12-04T08:18:25;21.97;;;12.60;;
6821;SDS011;3449;48.728;8.968;2023-12-04T08:20:52;24.43;;;11.50;;
6821;SDS011;3449;48.728;8.968;2023-12-04T08:23:20;29.90;;;11.73;;
6821;SDS011;3449;48.728;8.968;2023-12-04T08:25:47;24.67;;;12.70;;
6821;SDS011;3449;48.728;8.968;2023-12-04T08:28:14;26.17;;;12.60;;
6821;SDS011;3449;48.728;8.968;2023-12-04T08:30:41;26.97;;;12.47;;
6821;SDS011;3449;48.728;8.968;2023-12-04T08:33:08;21.17;;;11.90;;
6821;SDS011;3449;48.728;8.968;2023-12-04T08:35:34;20.23;;;10.53;;
6821;SDS011;3449;48.728;8.968;2023-12-04T08:38:01;18.33;;;10.23;;
6821;SDS011;3449;48.728;8.968;2023-12-04T08:40:29;19.00;;;10.10;;
6821;SDS011;3449;48.728;8.968;2023-12-04T08:42:56;19.33;;;8.87;;
6821;SDS011;3449;48.728;8.968;2023-12-04T08:45:23;15.53;;;8.90;;
6821;SDS011;3449;48.728;8.968;2023-12-04T08:47:50;15.93;;;8.70;;
6821;SDS011;3449;48.728;8.968;2023-12-04T08:50:17;17.67;;;9.20;;
6821;SDS011;3449;48.728;8.968;2023-12-04T08:52:44;16.77;;;8.17;;
6821;SDS011;3449;48.728;8.968;2023-12-04T08:55:10;16.07;;;9.10;;
6821;SDS011;3449;48.728;8.968;2023-12-04T08:57:39;21.53;;;9.70;;
6821;SDS011;3449;48.728;8.968;2023-12-04T09:00:06;17.87;;;9.33;;
6821;SDS011;3449;48.728;8.968;2023-12-04T09:02:34;18.17;;;8.70;;
6821;SDS011;3449;48.728;8.968;2023-12-04T09:05:01;17.60;;;9.70;;
6821;SDS011;3449;48.728;8.968;2023-12-04T09:07:28;19.47;;;10.60;;
6821;SDS011;3449;48.728;8.968;2023-12-04T09:09:55;21.30;;;10.10;;
6821;SDS011;3449;48.728;8.968;2023-12-04T09:12:22;21.43;;;10.93;;
6821;SDS011;3449;48.728;8.968;2023-12-04T09:14:50;19.00;;;10.70;;
6821;SDS011;3449;48.728;8.968;2023-12-04T09:17:17;20.53;;;10.37;;
6821;SDS011;3449;48.728;8.968;2023-12-04T09:19:45;22.87;;;10.30;;
6821;SDS011;3449;48.728;8.968;2023-12-04T09:22:17;21.27;;;10.80;;
6821;SDS011;3449;48.728;8.968;2023-12-04T09:24:44;28.43;;;13.17;;
6821;SDS011;3449;48.728;8.968;2023-12-04T09:27:11;20.67;;;10.60;;
6821;SDS011;3449;48.728;8.968;2023-12-04T09:29:38;24.27;;;11.60;;
6821;SDS011;3449;48.728;8.968;2023-12-04T09:32:06;27.53;;;13.67;;
6821;SDS011;3449;48.728;8.968;2023-12-04T09:34:33;19.87;;;11.03;;
6821;SDS011;3449;48.728;8.968;2023-12-04T09:36:59;22.17;;;11.37;;
6821;SDS011;3449;48.728;8.968;2023-12-04T09:39:27;24.43;;;13.37;;
6821;SDS011;3449;48.728;8.968;2023-12-04T09:41:55;22.37;;;10.80;;
6821;SDS011;3449;48.728;8.968;2023-12-04T09:44:23;19.07;;;10.33;;
6821;SDS011;3449;48.728;8.968;2023-12-04T09:46:51;28.03;;;12.20;;
6821;SDS011;3449;48.728;8.968;2023-12-04T09:49:19;20.13;;;11.07;;
6821;SDS011;3449;48.728;8.968;2023-12-04T09:51:47;19.40;;;10.10;;
6821;SDS011;3449;48.728;8.968;2023-12-04T09:54:14;20.53;;;10.27;;
6821;SDS011;3449;48.728;8.968;2023-12-04T09:56:44;15.60;;;9.00;;
6821;SDS011;3449;48.728;8.968;2023-12-04T09:59:12;19.70;;;10.20;;
6821;SDS011;3449;48.728;8.968;2023-12-04T10:01:41;20.00;;;8.80;;
6821;SDS011;3449;48.728;8.968;2023-12-04T10:04:12;20.37;;;9.20;;
6821;SDS011;3449;48.728;8.968;2023-12-04T10:06:41;20.43;;;10.57;;
6821;SDS011;3449;48.728;8.968;2023-12-04T10:09:09;21.90;;;9.93;;
6821;SDS011;3449;48.728;8.968;2023-12-04T10:11:39;15.83;;;9.90;;
6821;SDS011;3449;48.728;8.968;2023-12-04T10:14:12;18.97;;;10.70;;
6821;SDS011;3449;48.728;8.968;2023-12-04T10:16:40;16.90;;;10.33;;
6821;SDS011;3449;48.728;8.968;2023-12-04T10:19:17;18.63;;;9.70;;
6821;SDS011;3449;48.728;8.968;2023-12-04T10:21:47;17.30;;;8.93;;
6821;SDS011;3449;48.728;8.968;2023-12-04T10:24:28;14.13;;;8.10;;
6821;SDS011;3449;48.728;8.968;2023-12-04T10:26:57;18.33;;;9.47;;
6821;SDS011;3449;48.728;8.968;2023-12-04T10:29:24;19.07;;;8.83;;
6821;SDS011;3449;48.728;8.968;2023-12-04T10:31:55;13.73;;;8.10;;
6821;SDS011;3449;48.728;8.968;2023-12-04T10:34:21;17.80;;;9.47;;
6821;SDS011;3449;48.728;8.968;2023-12-04T10:36:52;15.47;;;8.60;;
6821;SDS011;3449;48.728;8.968;2023-12-04T10:39:19;18.90;;;9.80;;
6821;SDS011;3449;48.728;8.968;2023-12-04T10:41:48;16.80;;;9.50;;
6821;SDS011;3449;48.728;8.968;2023-12-04T10:44:28;16.30;;;8.70;;
6821;SDS011;3449;48.728;8.968;2023-12-04T10:46:56;20.00;;;7.67;;
6821;SDS011;3449;48.728;8.968;2023-12-04T10:49:25;19.30;;;9.87;;
6821;SDS011;3449;48.728;8.968;2023-12-04T10:51:56;17.83;;;8.40;;
6821;SDS011;3449;48.728;8.968;2023-12-04T10:54:24;18.53;;;10.23;;
6821;SDS011;3449;48.728;8.968;2023-12-04T10:56:51;15.97;;;8.33;;
6821;SDS011;3449;48.728;8.968;2023-12-04T10:59:21;13.03;;;8.13;;
6821;SDS011;3449;48.728;8.968;2023-12-04T11:01:53;17.27;;;8.77;;
6821;SDS011;3449;48.728;8.968;2023-12-04T11:04:22;17.70;;;8.60;;
6821;SDS011;3449;48.728;8.968;2023-12-04T11:06:52;15.50;;;8.20;;
6821;SDS011;3449;48.728;8.968;2023-12-04T11:09:21;17.30;;;8.63;;
6821;SDS011;3449;48.728;8.968;2023-12-04T11:11:53;15.47;;;8.90;;
6821;SDS011;3449;48.728;8.968;2023-12-04T11:14:25;15.30;;;8.47;;
6821;SDS011;3449;48.728;8.968;2023-12-04T11:16:57;12.23;;;6.37;;
6821;SDS011;3449;48.728;8.968;2023-12-04T11:19:28;15.87;;;7.87;;
6821;SDS011;3449;48.728;8.968;2023-12-04T11:21:58;15.40;;;8.47;;
6821;SDS011;3449;48.728;8.968;2023-12-04T11:24:27;13.00;;;7.30;;
6821;SDS011;3449;48.728;8.968;2023-12-04T11:26:54;15.67;;;8.80;;
6821;SDS011;3449;48.728;8.968;2023-12-04T11:29:22;17.53;;;9.70;;
6821;SDS011;3449;48.728;8.968;2023-12-04T11:31:50;18.87;;;9.97;;
6821;SDS011;3449;48.728;8.968;2023-12-04T11:34:17;25.20;;;10.70;;
6821;SDS011;3449;48.728;8.968;2023-12-04T11:36:44;24.33;;;12.90;;
6821;SDS011;3449;48.728;8.968;2023-12-04T11:39:11;17.17;;;9.53;;
6821;SDS011;3449;48.728;8.968;2023-12-04T11:41:39;20.23;;;8.73;;
6821;SDS011;3449;48.728;8.968;2023-12-04T11:44:11;16.60;;;9.90;;
6821;SDS011;3449;48.728;8.968;2023-12-04T11:46:43;20.00;;;11.47;;
6821;SDS011;3449;48.728;8.968;2023-12-04T11:49:28;22.73;;;10.27;;
6821;SDS011;3449;48.728;8.968;2023-12-04T11:51:55;22.23;;;10.20;;
6821;SDS011;3449;48.728;8.968;2023-12-04T11:54:24;23.07;;;10.90;;
6821;SDS011;3449;48.728;8.968;2023-12-04T11:56:57;19.60;;;10.00;;
6821;SDS011;3449;48.728;8.968;2023-12-04T11:59:25;22.40;;;11.57;;
6821;SDS011;3449;48.728;8.968;2023-12-04T12:01:53;21.93;;;12.27;;
6821;SDS011;3449;48.728;8.968;2023-12-04T12:04:22;18.60;;;12.40;;
6821;SDS011;3449;48.728;8.968;2023-12-04T12:06:49;18.53;;;9.47;;
6821;SDS011;3449;48.728;8.968;2023-12-04T12:09:16;17.00;;;9.63;;
6821;SDS011;3449;48.728;8.968;2023-12-04T12:11:44;21.20;;;10.57;;
6821;SDS011;3449;48.728;8.968;2023-12-04T12:14:12;16.83;;;10.10;;
6821;SDS011;3449;48.728;8.968;2023-12-04T12:16:39;16.67;;;9.50;;
6821;SDS011;3449;48.728;8.968;2023-12-04T12:19:07;17.90;;;8.73;;
6821;SDS011;3449;48.728;8.968;2023-12-04T12:21:34;17.10;;;9.00;;
6821;SDS011;3449;48.728;8.968;2023-12-04T12:24:00;16.20;;;8.33;;
6821;SDS011;3449;48.728;8.968;2023-12-04T12:26:28;18.90;;;9.60;;
6821;SDS011;3449;48.728;8.968;2023-12-04T12:28:55;17.70;;;9.57;;
6821;SDS011;3449;48.728;8.968;2023-12-04T12:31:23;24.67;;;9.27;;
6821;SDS011;3449;48.728;8.968;2023-12-04T12:33:50;15.67;;;9.10;;
6821;SDS011;3449;48.728;8.968;2023-12-04T12:36:18;18.80;;;9.17;;
6821;SDS011;3449;48.728;8.968;2023-12-04T12:38:45;24.00;;;11.13;;
6821;SDS011;3449;48.728;8.968;2023-12-04T12:41:15;24.03;;;10.77;;
6821;SDS011;3449;48.728;8.968;2023-12-04T12:43:42;27.00;;;9.47;;
6821;SDS011;3449;48.728;8.968;2023-12-04T12:46:09;20.23;;;9.53;;
6821;SDS011;3449;48.728;8.968;2023-12-04T12:48:38;17.80;;;8.93;;
6821;SDS011;3449;48.728;8.968;2023-12-04T12:51:05;20.03;;;10.20;;
6821;SDS011;3449;48.728;8.968;2023-12-04T12:53:36;17.57;;;8.83;;
6821;SDS011;3449;48.728;8.968;2023-12-04T12:56:03;23.30;;;10.77;;
6821;SDS011;3449;48.728;8.968;2023-12-04T12:58:31;18.20;;;8.83;;
6821;SDS011;3449;48.728;8.968;2023-12-04T13:00:59;25.30;;;10.13;;
6821;SDS011;3449;48.728;8.968;2023-12-04T13:03:26;18.37;;;8.70;;
6821;SDS011;3449;48.728;8.968;2023-12-04T13:05:57;23.87;;;10.77;;
6821;SDS011;3449;48.728;8.968;2023-12-04T13:08:24;17.23;;;8.97;;
6821;SDS011;3449;48.728;8.968;2023-12-04T13:10:51;18.00;;;9.97;;
6821;SDS011;3449;48.728;8.968;2023-12-04T13:13:18;17.00;;;9.23;;
6821;SDS011;3449;48.728;8.968;2023-12-04T13:15:45;18.70;;;9.37;;
6821;SDS011;3449;48.728;8.968;2023-12-04T13:18:12;18.40;;;9.37;;
6821;SDS011;3449;48.728;8.968;2023-12-04T13:20:38;18.70;;;9.70;;
6821;SDS011;3449;48.728;8.968;2023-12-04T13:23:06;18.60;;;11.73;;
6821;SDS011;3449;48.728;8.968;2023-12-04T13:25:34;19.67;;;10.60;;
6821;SDS011;3449;48.728;8.968;2023-12-04T13:28:00;17.80;;;9.37;;
6821;SDS011;3449;48.728;8.968;2023-12-04T13:30:27;18.67;;;10.40;;
6821;SDS011;3449;48.728;8.968;2023-12-04T13:32:54;21.47;;;11.30;;
6821;SDS011;3449;48.728;8.968;2023-12-04T13:35:21;22.63;;;11.77;;
6821;SDS011;3449;48.728;8.968;2023-12-04T13:37:48;23.07;;;12.00;;
6821;SDS011;3449;48.728;8.968;2023-12-04T13:40:21;19.73;;;11.80;;
6821;SDS011;3449;48.728;8.968;2023-12-04T13:42:51;19.13;;;10.90;;
6821;SDS011;3449;48.728;8.968;2023-12-04T13:45:36;21.80;;;11.70;;
6821;SDS011;3449;48.728;8.968;2023-12-04T13:48:03;18.50;;;10.17;;
6821;SDS011;3449;48.728;8.968;2023-12-04T13:50:30;23.90;;;11.20;;
6821;SDS011;3449;48.728;8.968;2023-12-04T13:52:57;23.90;;;10.80;;
6821;SDS011;3449;48.728;8.968;2023-12-04T13:55:26;22.43;;;11.23;;
6821;SDS011;3449;48.728;8.968;2023-12-04T13:58:13;22.83;;;11.07;;
6821;SDS011;3449;48.728;8.968;2023-12-04T14:01:02;16.07;;;9.30;;
6821;SDS011;3449;48.728;8.968;2023-12-04T14:03:38;20.80;;;11.50;;
6821;SDS011;3449;48.728;8.968;2023-12-04T14:06:05;21.30;;;11.33;;
6821;SDS011;3449;48.728;8.968;2023-12-04T14:08:32;18.40;;;11.20;;
6821;SDS011;3449;48.728;8.968;2023-12-04T14:11:01;23.87;;;12.00;;
6821;SDS011;3449;48.728;8.968;2023-12-04T14:13:27;19.97;;;10.77;;
6821;SDS011;3449;48.728;8.968;2023-12-04T14:15:54;22.90;;;11.63;;
6821;SDS011;3449;48.728;8.968;2023-12-04T14:18:22;24.70;;;12.40;;
6821;SDS011;3449;48.728;8.968;2023-12-04T14:20:50;23.30;;;11.10;;
6821;SDS011;3449;48.728;8.968;2023-12-04T14:23:17;20.00;;;10.90;;
6821;SDS011;3449;48.728;8.968;2023-12-04T14:25:45;17.27;;;10.50;;
6821;SDS011;3449;48.728;8.968;2023-12-04T14:28:14;22.67;;;11.10;;
6821;SDS011;3449;48.728;8.968;2023-12-04T14:30:41;15.70;;;9.03;;
6821;SDS011;3449;48.728;8.968;2023-12-04T14:33:09;20.10;;;9.10;;
6821;SDS011;3449;48.728;8.968;2023-12-04T14:35:36;21.00;;;10.43;;
6821;SDS011;3449;48.728;8.968;2023-12-04T14:38:03;18.47;;;9.67;;
6821;SDS011;3449;48.728;8.968;2023-12-04T14:40:30;23.80;;;11.63;;
6821;SDS011;3449;48.728;8.968;2023-12-04T14:42:58;21.60;;;10.60;;
6821;SDS011;3449;48.728;8.968;2023-12-04T14:45:26;17.77;;;9.13;;
6821;SDS011;3449;48.728;8.968;2023-12-04T14:47:53;21.73;;;11.30;;
6821;SDS011;3449;48.728;8.968;2023-12-04T14:50:22;19.77;;;10.70;;
6821;SDS011;3449;48.728;8.968;2023-12-04T14:52:49;19.37;;;10.17;;
6821;SDS011;3449;48.728;8.968;2023-12-04T14:55:17;17.70;;;9.70;;